sensor_id;sensor_type;location;lat;lon;timestamp;P1;durP1;ratioP1;P2;durP2;ratioP2
71296;SDS011;59082;50.658;4.608;2023-06-26T00:01:57;3.60;;;2.43;;
71296;SDS011;59082;50.658;4.608;2023-06-26T00:04:22;5.47;;;3.00;;
71296;SDS011;59082;50.658;4.608;2023-06-26T00:06:48;6.28;;;2.70;;
71296;SDS011;59082;50.658;4.608;2023-06-26T00:09:13;4.70;;;2.80;;
71296;SDS011;59082;50.658;4.608;2023-06-26T00:11:39;4.03;;;3.00;;
71296;SDS011;59082;50.658;4.608;2023-06-26T00:14:04;6.70;;;3.13;;
71296;SDS011;59082;50.658;4.608;2023-06-26T00:16:30;3.97;;;3.00;;
71296;SDS011;59082;50.658;4.608;2023-06-26T00:18:56;3.67;;;2.70;;
71296;SDS011;59082;50.658;4.608;2023-06-26T00:21:21;4.80;;;2.67;;
71296;SDS011;59082;50.658;4.608;2023-06-26T00:23:47;4.50;;;2.63;;
71296;SDS011;59082;50.658;4.608;2023-06-26T00:26:13;6.90;;;2.90;;
71296;SDS011;59082;50.658;4.608;2023-06-26T00:28:38;5.07;;;3.00;;
71296;SDS011;59082;50.658;4.608;2023-06-26T00:31:04;5.57;;;2.58;;
71296;SDS011;59082;50.658;4.608;2023-06-26T00:33:29;8.33;;;3.43;;
71296;SDS011;59082;50.658;4.608;2023-06-26T00:35:55;4.90;;;3.00;;
71296;SDS011;59082;50.658;4.608;2023-06-26T00:38:20;6.82;;;3.17;;
71296;SDS011;59082;50.658;4.608;2023-06-26T00:40:46;6.13;;;3.10;;
71296;SDS011;59082;50.658;4.608;2023-06-26T00:43:12;8.57;;;4.00;;
71296;SDS011;59082;50.658;4.608;2023-06-26T00:45:37;5.07;;;3.40;;
71296;SDS011;59082;50.658;4.608;2023-06-26T00:48:03;5.53;;;3.47;;
71296;SDS011;59082;50.658;4.608;2023-06-26T00:50:29;4.25;;;2.80;;
71296;SDS011;59082;50.658;4.608;2023-06-26T00:52:54;5.35;;;2.78;;
71296;SDS011;59082;50.658;4.608;2023-06-26T00:55:25;5.78;;;3.38;;
71296;SDS011;59082;50.658;4.608;2023-06-26T00:57:52;4.40;;;2.97;;
71296;SDS011;59082;50.658;4.608;2023-06-26T01:00:17;4.22;;;2.33;;
71296;SDS011;59082;50.658;4.608;2023-06-26T01:02:43;4.38;;;2.58;;
71296;SDS011;59082;50.658;4.608;2023-06-26T01:05:09;4.57;;;2.50;;
71296;SDS011;59082;50.658;4.608;2023-06-26T01:07:38;3.67;;;2.15;;
71296;SDS011;59082;50.658;4.608;2023-06-26T01:10:04;3.33;;;2.33;;
71296;SDS011;59082;50.658;4.608;2023-06-26T01:12:31;4.10;;;2.07;;
71296;SDS011;59082;50.658;4.608;2023-06-26T01:14:58;5.38;;;2.85;;
71296;SDS011;59082;50.658;4.608;2023-06-26T01:17:27;4.90;;;2.60;;
71296;SDS011;59082;50.658;4.608;2023-06-26T01:20:00;4.75;;;2.20;;
71296;SDS011;59082;50.658;4.608;2023-06-26T01:25:18;4.57;;;2.10;;
71296;SDS011;59082;50.658;4.608;2023-06-26T01:27:53;3.70;;;2.05;;
71296;SDS011;59082;50.658;4.608;2023-06-26T01:30:20;5.68;;;2.10;;
71296;SDS011;59082;50.658;4.608;2023-06-26T01:32:47;5.47;;;2.20;;
71296;SDS011;59082;50.658;4.608;2023-06-26T01:35:15;5.82;;;2.22;;
71296;SDS011;59082;50.658;4.608;2023-06-26T01:37:41;6.73;;;3.87;;
71296;SDS011;59082;50.658;4.608;2023-06-26T01:40:06;5.15;;;2.80;;
71296;SDS011;59082;50.658;4.608;2023-06-26T01:42:33;7.55;;;2.30;;
71296;SDS011;59082;50.658;4.608;2023-06-26T01:45:01;3.83;;;2.23;;
71296;SDS011;59082;50.658;4.608;2023-06-26T01:47:32;4.35;;;1.92;;
71296;SDS011;59082;50.658;4.608;2023-06-26T01:50:09;4.68;;;2.22;;
71296;SDS011;59082;50.658;4.608;2023-06-26T01:52:41;3.83;;;2.03;;
71296;SDS011;59082;50.658;4.608;2023-06-26T01:58:01;4.20;;;2.27;;
71296;SDS011;59082;50.658;4.608;2023-06-26T02:00:27;5.75;;;2.85;;
71296;SDS011;59082;50.658;4.608;2023-06-26T02:02:53;3.55;;;1.90;;
71296;SDS011;59082;50.658;4.608;2023-06-26T02:05:19;4.73;;;2.40;;
71296;SDS011;59082;50.658;4.608;2023-06-26T02:07:44;4.93;;;2.72;;
71296;SDS011;59082;50.658;4.608;2023-06-26T02:10:10;5.27;;;2.83;;
71296;SDS011;59082;50.658;4.608;2023-06-26T02:12:36;4.53;;;2.07;;
71296;SDS011;59082;50.658;4.608;2023-06-26T02:15:03;3.95;;;2.35;;
71296;SDS011;59082;50.658;4.608;2023-06-26T02:17:29;4.38;;;2.30;;
71296;SDS011;59082;50.658;4.608;2023-06-26T02:19:55;4.78;;;2.47;;
71296;SDS011;59082;50.658;4.608;2023-06-26T02:22:21;5.00;;;2.50;;
71296;SDS011;59082;50.658;4.608;2023-06-26T02:24:46;4.05;;;2.05;;
71296;SDS011;59082;50.658;4.608;2023-06-26T02:27:12;4.93;;;2.30;;
71296;SDS011;59082;50.658;4.608;2023-06-26T02:29:39;4.85;;;2.08;;
71296;SDS011;59082;50.658;4.608;2023-06-26T02:32:06;10.83;;;2.90;;
71296;SDS011;59082;50.658;4.608;2023-06-26T02:34:32;5.50;;;2.60;;
71296;SDS011;59082;50.658;4.608;2023-06-26T02:36:58;3.92;;;2.53;;
71296;SDS011;59082;50.658;4.608;2023-06-26T02:39:25;5.78;;;2.80;;
71296;SDS011;59082;50.658;4.608;2023-06-26T02:41:51;5.07;;;2.80;;
71296;SDS011;59082;50.658;4.608;2023-06-26T02:44:16;6.65;;;2.70;;
71296;SDS011;59082;50.658;4.608;2023-06-26T02:46:42;4.20;;;2.77;;
71296;SDS011;59082;50.658;4.608;2023-06-26T02:49:08;4.72;;;2.80;;
71296;SDS011;59082;50.658;4.608;2023-06-26T02:51:33;6.00;;;2.10;;
71296;SDS011;59082;50.658;4.608;2023-06-26T02:53:59;4.57;;;2.80;;
71296;SDS011;59082;50.658;4.608;2023-06-26T02:56:25;4.70;;;3.03;;
71296;SDS011;59082;50.658;4.608;2023-06-26T02:58:57;3.58;;;2.58;;
71296;SDS011;59082;50.658;4.608;2023-06-26T03:01:23;4.97;;;2.35;;
71296;SDS011;59082;50.658;4.608;2023-06-26T03:03:48;5.53;;;2.30;;
71296;SDS011;59082;50.658;4.608;2023-06-26T03:06:14;6.50;;;2.75;;
71296;SDS011;59082;50.658;4.608;2023-06-26T03:08:40;5.83;;;2.43;;
71296;SDS011;59082;50.658;4.608;2023-06-26T03:11:06;4.63;;;2.28;;
71296;SDS011;59082;50.658;4.608;2023-06-26T03:13:33;4.13;;;2.23;;
71296;SDS011;59082;50.658;4.608;2023-06-26T03:15:59;7.43;;;2.75;;
71296;SDS011;59082;50.658;4.608;2023-06-26T03:18:25;5.72;;;2.63;;
71296;SDS011;59082;50.658;4.608;2023-06-26T03:20:51;7.93;;;2.00;;
71296;SDS011;59082;50.658;4.608;2023-06-26T03:23:19;6.90;;;2.90;;
71296;SDS011;59082;50.658;4.608;2023-06-26T03:25:45;8.38;;;3.42;;
71296;SDS011;59082;50.658;4.608;2023-06-26T03:28:11;7.60;;;3.20;;
71296;SDS011;59082;50.658;4.608;2023-06-26T03:30:36;7.50;;;2.63;;
71296;SDS011;59082;50.658;4.608;2023-06-26T03:33:02;5.80;;;2.10;;
71296;SDS011;59082;50.658;4.608;2023-06-26T03:35:27;6.53;;;3.03;;
71296;SDS011;59082;50.658;4.608;2023-06-26T03:37:53;7.27;;;2.87;;
71296;SDS011;59082;50.658;4.608;2023-06-26T03:40:19;7.88;;;2.75;;
71296;SDS011;59082;50.658;4.608;2023-06-26T03:42:45;7.70;;;2.70;;
71296;SDS011;59082;50.658;4.608;2023-06-26T03:45:10;9.10;;;2.97;;
71296;SDS011;59082;50.658;4.608;2023-06-26T03:47:36;10.73;;;2.83;;
71296;SDS011;59082;50.658;4.608;2023-06-26T03:50:02;7.33;;;2.60;;
71296;SDS011;59082;50.658;4.608;2023-06-26T03:52:27;9.33;;;3.60;;
71296;SDS011;59082;50.658;4.608;2023-06-26T03:54:56;8.27;;;3.53;;
71296;SDS011;59082;50.658;4.608;2023-06-26T03:57:24;7.63;;;3.03;;
71296;SDS011;59082;50.658;4.608;2023-06-26T03:59:50;7.87;;;2.77;;
71296;SDS011;59082;50.658;4.608;2023-06-26T04:02:16;9.70;;;3.38;;
71296;SDS011;59082;50.658;4.608;2023-06-26T04:04:42;7.50;;;3.50;;
71296;SDS011;59082;50.658;4.608;2023-06-26T04:07:07;5.73;;;2.60;;
71296;SDS011;59082;50.658;4.608;2023-06-26T04:09:33;6.23;;;3.73;;
71296;SDS011;59082;50.658;4.608;2023-06-26T04:11:58;7.00;;;3.20;;
71296;SDS011;59082;50.658;4.608;2023-06-26T04:14:24;7.40;;;2.55;;
71296;SDS011;59082;50.658;4.608;2023-06-26T04:16:50;9.00;;;3.37;;
71296;SDS011;59082;50.658;4.608;2023-06-26T04:19:15;9.13;;;3.60;;
71296;SDS011;59082;50.658;4.608;2023-06-26T04:21:41;7.18;;;2.83;;
71296;SDS011;59082;50.658;4.608;2023-06-26T04:24:06;10.50;;;3.80;;
71296;SDS011;59082;50.658;4.608;2023-06-26T04:26:32;8.00;;;2.80;;
71296;SDS011;59082;50.658;4.608;2023-06-26T04:28:57;12.47;;;3.30;;
71296;SDS011;59082;50.658;4.608;2023-06-26T04:31:23;7.63;;;3.15;;
71296;SDS011;59082;50.658;4.608;2023-06-26T04:33:49;8.83;;;2.73;;
71296;SDS011;59082;50.658;4.608;2023-06-26T04:36:16;12.80;;;3.90;;
71296;SDS011;59082;50.658;4.608;2023-06-26T04:38:42;9.75;;;3.17;;
71296;SDS011;59082;50.658;4.608;2023-06-26T04:41:08;13.13;;;2.77;;
71296;SDS011;59082;50.658;4.608;2023-06-26T04:43:33;9.73;;;3.07;;
71296;SDS011;59082;50.658;4.608;2023-06-26T04:45:59;7.55;;;2.72;;
71296;SDS011;59082;50.658;4.608;2023-06-26T04:48:24;9.83;;;3.07;;
71296;SDS011;59082;50.658;4.608;2023-06-26T04:50:53;11.45;;;2.70;;
71296;SDS011;59082;50.658;4.608;2023-06-26T04:53:20;13.52;;;3.25;;
71296;SDS011;59082;50.658;4.608;2023-06-26T04:55:46;10.02;;;3.08;;
71296;SDS011;59082;50.658;4.608;2023-06-26T04:58:11;9.23;;;2.40;;
71296;SDS011;59082;50.658;4.608;2023-06-26T05:00:37;9.33;;;3.20;;
71296;SDS011;59082;50.658;4.608;2023-06-26T05:03:03;12.27;;;3.15;;
71296;SDS011;59082;50.658;4.608;2023-06-26T05:05:29;8.53;;;2.77;;
71296;SDS011;59082;50.658;4.608;2023-06-26T05:07:54;12.52;;;2.65;;
71296;SDS011;59082;50.658;4.608;2023-06-26T05:10:21;7.97;;;3.00;;
71296;SDS011;59082;50.658;4.608;2023-06-26T05:12:47;10.03;;;2.30;;
71296;SDS011;59082;50.658;4.608;2023-06-26T05:15:12;9.27;;;2.13;;
71296;SDS011;59082;50.658;4.608;2023-06-26T05:17:38;10.90;;;3.30;;
71296;SDS011;59082;50.658;4.608;2023-06-26T05:20:03;7.00;;;2.50;;
71296;SDS011;59082;50.658;4.608;2023-06-26T05:22:31;10.68;;;3.20;;
71296;SDS011;59082;50.658;4.608;2023-06-26T05:24:58;7.90;;;2.40;;
71296;SDS011;59082;50.658;4.608;2023-06-26T05:27:25;9.80;;;2.42;;
71296;SDS011;59082;50.658;4.608;2023-06-26T05:29:51;8.57;;;2.38;;
71296;SDS011;59082;50.658;4.608;2023-06-26T05:32:17;10.20;;;2.50;;
71296;SDS011;59082;50.658;4.608;2023-06-26T05:34:52;6.03;;;1.90;;
71296;SDS011;59082;50.658;4.608;2023-06-26T05:37:22;8.90;;;2.08;;
71296;SDS011;59082;50.658;4.608;2023-06-26T05:39:51;7.57;;;2.25;;
71296;SDS011;59082;50.658;4.608;2023-06-26T05:42:17;8.40;;;1.90;;
71296;SDS011;59082;50.658;4.608;2023-06-26T05:44:43;7.57;;;1.80;;
71296;SDS011;59082;50.658;4.608;2023-06-26T05:47:08;9.80;;;2.67;;
71296;SDS011;59082;50.658;4.608;2023-06-26T05:49:34;6.03;;;2.25;;
71296;SDS011;59082;50.658;4.608;2023-06-26T05:52:00;7.17;;;2.23;;
71296;SDS011;59082;50.658;4.608;2023-06-26T05:54:28;7.70;;;2.80;;
71296;SDS011;59082;50.658;4.608;2023-06-26T05:56:56;4.75;;;1.88;;
71296;SDS011;59082;50.658;4.608;2023-06-26T05:59:31;7.83;;;2.07;;
71296;SDS011;59082;50.658;4.608;2023-06-26T06:01:57;8.25;;;1.63;;
71296;SDS011;59082;50.658;4.608;2023-06-26T06:04:23;9.95;;;2.20;;
71296;SDS011;59082;50.658;4.608;2023-06-26T06:06:49;7.37;;;1.73;;
71296;SDS011;59082;50.658;4.608;2023-06-26T06:09:14;7.63;;;2.08;;
71296;SDS011;59082;50.658;4.608;2023-06-26T06:11:40;6.43;;;1.80;;
71296;SDS011;59082;50.658;4.608;2023-06-26T06:14:06;6.80;;;2.05;;
71296;SDS011;59082;50.658;4.608;2023-06-26T06:16:31;4.87;;;2.27;;
71296;SDS011;59082;50.658;4.608;2023-06-26T06:18:57;6.63;;;1.87;;
71296;SDS011;59082;50.658;4.608;2023-06-26T06:21:22;11.38;;;3.40;;
71296;SDS011;59082;50.658;4.608;2023-06-26T06:23:48;6.53;;;2.03;;
71296;SDS011;59082;50.658;4.608;2023-06-26T06:26:14;7.17;;;1.40;;
71296;SDS011;59082;50.658;4.608;2023-06-26T06:28:39;10.03;;;1.83;;
71296;SDS011;59082;50.658;4.608;2023-06-26T06:31:05;6.27;;;1.83;;
71296;SDS011;59082;50.658;4.608;2023-06-26T06:33:30;13.45;;;2.53;;
71296;SDS011;59082;50.658;4.608;2023-06-26T06:35:57;4.67;;;1.70;;
71296;SDS011;59082;50.658;4.608;2023-06-26T06:38:22;7.85;;;1.95;;
71296;SDS011;59082;50.658;4.608;2023-06-26T06:40:48;5.63;;;1.53;;
71296;SDS011;59082;50.658;4.608;2023-06-26T06:43:13;10.27;;;2.25;;
71296;SDS011;59082;50.658;4.608;2023-06-26T06:45:39;9.97;;;2.37;;
71296;SDS011;59082;50.658;4.608;2023-06-26T06:48:05;6.23;;;1.50;;
71296;SDS011;59082;50.658;4.608;2023-06-26T06:50:31;5.88;;;1.55;;
71296;SDS011;59082;50.658;4.608;2023-06-26T06:52:56;5.73;;;1.63;;
71296;SDS011;59082;50.658;4.608;2023-06-26T06:55:22;7.45;;;1.38;;
71296;SDS011;59082;50.658;4.608;2023-06-26T06:57:49;6.80;;;1.17;;
71296;SDS011;59082;50.658;4.608;2023-06-26T07:00:15;2.80;;;1.00;;
71296;SDS011;59082;50.658;4.608;2023-06-26T07:02:44;7.68;;;1.27;;
71296;SDS011;59082;50.658;4.608;2023-06-26T07:05:11;4.07;;;1.95;;
71296;SDS011;59082;50.658;4.608;2023-06-26T07:07:38;7.68;;;1.40;;
71296;SDS011;59082;50.658;4.608;2023-06-26T07:10:12;5.18;;;1.33;;
71296;SDS011;59082;50.658;4.608;2023-06-26T07:12:39;7.30;;;1.50;;
71296;SDS011;59082;50.658;4.608;2023-06-26T07:15:05;9.45;;;1.00;;
71296;SDS011;59082;50.658;4.608;2023-06-26T07:17:31;4.40;;;1.02;;
71296;SDS011;59082;50.658;4.608;2023-06-26T07:19:57;5.80;;;1.05;;
71296;SDS011;59082;50.658;4.608;2023-06-26T07:22:24;3.03;;;0.77;;
71296;SDS011;59082;50.658;4.608;2023-06-26T07:24:49;3.80;;;1.17;;
71296;SDS011;59082;50.658;4.608;2023-06-26T07:27:15;8.13;;;1.80;;
71296;SDS011;59082;50.658;4.608;2023-06-26T07:29:42;4.22;;;1.27;;
71296;SDS011;59082;50.658;4.608;2023-06-26T07:32:07;7.60;;;1.20;;
71296;SDS011;59082;50.658;4.608;2023-06-26T07:34:33;6.50;;;0.80;;
71296;SDS011;59082;50.658;4.608;2023-06-26T07:36:59;5.10;;;1.67;;
71296;SDS011;59082;50.658;4.608;2023-06-26T07:39:24;4.03;;;1.50;;
71296;SDS011;59082;50.658;4.608;2023-06-26T07:41:50;3.78;;;1.20;;
71296;SDS011;59082;50.658;4.608;2023-06-26T07:44:15;4.43;;;1.77;;
71296;SDS011;59082;50.658;4.608;2023-06-26T07:46:41;4.07;;;0.70;;
71296;SDS011;59082;50.658;4.608;2023-06-26T07:49:06;4.80;;;0.93;;
71296;SDS011;59082;50.658;4.608;2023-06-26T07:51:32;5.03;;;0.93;;
71296;SDS011;59082;50.658;4.608;2023-06-26T07:53:57;3.60;;;1.10;;
71296;SDS011;59082;50.658;4.608;2023-06-26T07:56:23;3.97;;;0.77;;
71296;SDS011;59082;50.658;4.608;2023-06-26T07:58:49;3.80;;;1.27;;
71296;SDS011;59082;50.658;4.608;2023-06-26T08:01:14;12.47;;;2.33;;
71296;SDS011;59082;50.658;4.608;2023-06-26T08:03:39;7.00;;;1.35;;
71296;SDS011;59082;50.658;4.608;2023-06-26T08:06:05;3.87;;;0.80;;
71296;SDS011;59082;50.658;4.608;2023-06-26T08:08:31;6.32;;;1.23;;
71296;SDS011;59082;50.658;4.608;2023-06-26T08:10:56;4.43;;;1.20;;
71296;SDS011;59082;50.658;4.608;2023-06-26T08:13:22;5.20;;;1.13;;
71296;SDS011;59082;50.658;4.608;2023-06-26T08:15:47;6.85;;;1.10;;
71296;SDS011;59082;50.658;4.608;2023-06-26T08:18:13;4.53;;;1.23;;
71296;SDS011;59082;50.658;4.608;2023-06-26T08:20:38;4.03;;;0.60;;
71296;SDS011;59082;50.658;4.608;2023-06-26T08:23:04;5.75;;;0.93;;
71296;SDS011;59082;50.658;4.608;2023-06-26T08:25:30;2.57;;;0.93;;
71296;SDS011;59082;50.658;4.608;2023-06-26T08:27:55;2.33;;;0.73;;
71296;SDS011;59082;50.658;4.608;2023-06-26T08:30:21;5.03;;;1.30;;
71296;SDS011;59082;50.658;4.608;2023-06-26T08:32:47;5.40;;;1.40;;
71296;SDS011;59082;50.658;4.608;2023-06-26T08:35:12;3.23;;;0.80;;
71296;SDS011;59082;50.658;4.608;2023-06-26T08:37:38;5.33;;;1.30;;
71296;SDS011;59082;50.658;4.608;2023-06-26T08:40:04;4.43;;;0.93;;
71296;SDS011;59082;50.658;4.608;2023-06-26T08:42:30;3.45;;;1.40;;
71296;SDS011;59082;50.658;4.608;2023-06-26T08:44:55;2.33;;;0.70;;
71296;SDS011;59082;50.658;4.608;2023-06-26T08:47:21;4.57;;;1.10;;
71296;SDS011;59082;50.658;4.608;2023-06-26T08:49:51;2.65;;;0.73;;
71296;SDS011;59082;50.658;4.608;2023-06-26T08:52:23;6.35;;;1.08;;
71296;SDS011;59082;50.658;4.608;2023-06-26T08:54:57;3.70;;;0.82;;
71296;SDS011;59082;50.658;4.608;2023-06-26T08:57:23;6.38;;;0.85;;
71296;SDS011;59082;50.658;4.608;2023-06-26T08:59:51;5.27;;;0.50;;
71296;SDS011;59082;50.658;4.608;2023-06-26T09:02:17;5.47;;;1.05;;
71296;SDS011;59082;50.658;4.608;2023-06-26T09:04:42;3.50;;;0.77;;
71296;SDS011;59082;50.658;4.608;2023-06-26T09:07:08;3.87;;;1.00;;
71296;SDS011;59082;50.658;4.608;2023-06-26T09:09:34;4.03;;;0.80;;
71296;SDS011;59082;50.658;4.608;2023-06-26T09:12:01;3.67;;;0.90;;
71296;SDS011;59082;50.658;4.608;2023-06-26T09:14:28;3.78;;;0.98;;
71296;SDS011;59082;50.658;4.608;2023-06-26T09:16:54;3.13;;;0.70;;
71296;SDS011;59082;50.658;4.608;2023-06-26T09:19:20;3.40;;;0.77;;
71296;SDS011;59082;50.658;4.608;2023-06-26T09:21:47;5.03;;;0.97;;
71296;SDS011;59082;50.658;4.608;2023-06-26T09:24:15;2.50;;;0.70;;
71296;SDS011;59082;50.658;4.608;2023-06-26T09:26:42;5.37;;;1.03;;
71296;SDS011;59082;50.658;4.608;2023-06-26T09:29:08;3.15;;;0.85;;
71296;SDS011;59082;50.658;4.608;2023-06-26T09:31:38;3.58;;;1.17;;
71296;SDS011;59082;50.658;4.608;2023-06-26T09:34:04;2.75;;;0.70;;
71296;SDS011;59082;50.658;4.608;2023-06-26T09:36:30;2.15;;;1.00;;
71296;SDS011;59082;50.658;4.608;2023-06-26T09:39:04;4.00;;;0.70;;
71296;SDS011;59082;50.658;4.608;2023-06-26T09:41:35;3.03;;;0.80;;
71296;SDS011;59082;50.658;4.608;2023-06-26T09:44:04;3.42;;;0.77;;
71296;SDS011;59082;50.658;4.608;2023-06-26T09:46:30;3.05;;;0.88;;
71296;SDS011;59082;50.658;4.608;2023-06-26T09:51:35;3.60;;;0.80;;
71296;SDS011;59082;50.658;4.608;2023-06-26T09:54:02;5.63;;;2.78;;
71296;SDS011;59082;50.658;4.608;2023-06-26T09:56:29;4.05;;;1.00;;
71296;SDS011;59082;50.658;4.608;2023-06-26T09:58:56;2.60;;;0.93;;
71296;SDS011;59082;50.658;4.608;2023-06-26T10:01:23;9.30;;;0.60;;
71296;SDS011;59082;50.658;4.608;2023-06-26T10:03:49;3.03;;;0.63;;
71296;SDS011;59082;50.658;4.608;2023-06-26T10:06:15;2.15;;;0.70;;
71296;SDS011;59082;50.658;4.608;2023-06-26T10:08:58;3.20;;;0.63;;
71296;SDS011;59082;50.658;4.608;2023-06-26T10:11:25;3.25;;;1.02;;
71296;SDS011;59082;50.658;4.608;2023-06-26T10:14:00;2.37;;;0.77;;
71296;SDS011;59082;50.658;4.608;2023-06-26T10:16:28;2.58;;;1.05;;
71296;SDS011;59082;50.658;4.608;2023-06-26T10:18:58;2.92;;;1.23;;
71296;SDS011;59082;50.658;4.608;2023-06-26T10:21:28;2.95;;;1.00;;
71296;SDS011;59082;50.658;4.608;2023-06-26T10:23:55;2.30;;;0.52;;
71296;SDS011;59082;50.658;4.608;2023-06-26T10:26:22;2.80;;;1.20;;
71296;SDS011;59082;50.658;4.608;2023-06-26T10:28:49;4.45;;;0.90;;
71296;SDS011;59082;50.658;4.608;2023-06-26T10:31:18;4.22;;;0.82;;
71296;SDS011;59082;50.658;4.608;2023-06-26T10:33:48;4.30;;;0.88;;
71296;SDS011;59082;50.658;4.608;2023-06-26T10:36:15;2.17;;;0.40;;
71296;SDS011;59082;50.658;4.608;2023-06-26T10:38:50;4.97;;;1.00;;
71296;SDS011;59082;50.658;4.608;2023-06-26T10:41:19;3.10;;;0.82;;
71296;SDS011;59082;50.658;4.608;2023-06-26T10:43:48;3.47;;;1.13;;
71296;SDS011;59082;50.658;4.608;2023-06-26T10:46:17;1.90;;;1.02;;
71296;SDS011;59082;50.658;4.608;2023-06-26T10:48:57;2.85;;;0.70;;
71296;SDS011;59082;50.658;4.608;2023-06-26T10:51:24;2.70;;;0.40;;
71296;SDS011;59082;50.658;4.608;2023-06-26T10:54:00;4.45;;;0.85;;
71296;SDS011;59082;50.658;4.608;2023-06-26T10:56:40;3.03;;;1.00;;
71296;SDS011;59082;50.658;4.608;2023-06-26T10:59:14;4.15;;;1.38;;
71296;SDS011;59082;50.658;4.608;2023-06-26T11:01:54;2.65;;;0.88;;
71296;SDS011;59082;50.658;4.608;2023-06-26T11:12:43;3.22;;;1.00;;
71296;SDS011;59082;50.658;4.608;2023-06-26T11:15:10;2.10;;;1.10;;
71296;SDS011;59082;50.658;4.608;2023-06-26T11:17:36;1.80;;;0.80;;
71296;SDS011;59082;50.658;4.608;2023-06-26T11:20:06;2.17;;;0.80;;
71296;SDS011;59082;50.658;4.608;2023-06-26T11:22:34;2.15;;;0.85;;
71296;SDS011;59082;50.658;4.608;2023-06-26T11:25:00;1.90;;;0.88;;
71296;SDS011;59082;50.658;4.608;2023-06-26T11:27:39;2.35;;;0.70;;
71296;SDS011;59082;50.658;4.608;2023-06-26T11:30:09;1.27;;;0.73;;
71296;SDS011;59082;50.658;4.608;2023-06-26T11:32:36;2.97;;;0.68;;
71296;SDS011;59082;50.658;4.608;2023-06-26T11:35:02;3.90;;;0.82;;
71296;SDS011;59082;50.658;4.608;2023-06-26T11:37:30;1.50;;;1.10;;
71296;SDS011;59082;50.658;4.608;2023-06-26T11:39:59;2.00;;;1.10;;
71296;SDS011;59082;50.658;4.608;2023-06-26T11:42:25;2.27;;;1.10;;
71296;SDS011;59082;50.658;4.608;2023-06-26T11:44:50;2.95;;;1.15;;
71296;SDS011;59082;50.658;4.608;2023-06-26T11:47:17;3.20;;;1.07;;
71296;SDS011;59082;50.658;4.608;2023-06-26T11:49:45;3.28;;;1.17;;
71296;SDS011;59082;50.658;4.608;2023-06-26T11:52:11;3.28;;;1.17;;
71296;SDS011;59082;50.658;4.608;2023-06-26T11:54:37;3.55;;;0.52;;
71296;SDS011;59082;50.658;4.608;2023-06-26T11:57:04;3.03;;;1.02;;
71296;SDS011;59082;50.658;4.608;2023-06-26T11:59:36;2.27;;;0.67;;
71296;SDS011;59082;50.658;4.608;2023-06-26T12:02:06;2.40;;;0.60;;
71296;SDS011;59082;50.658;4.608;2023-06-26T12:04:32;4.38;;;1.10;;
71296;SDS011;59082;50.658;4.608;2023-06-26T12:07:00;3.13;;;1.00;;
71296;SDS011;59082;50.658;4.608;2023-06-26T12:09:29;2.67;;;1.00;;
71296;SDS011;59082;50.658;4.608;2023-06-26T12:11:55;4.63;;;1.27;;
71296;SDS011;59082;50.658;4.608;2023-06-26T12:14:22;3.15;;;0.65;;
71296;SDS011;59082;50.658;4.608;2023-06-26T12:16:50;2.00;;;1.20;;
71296;SDS011;59082;50.658;4.608;2023-06-26T12:19:15;5.97;;;1.40;;
71296;SDS011;59082;50.658;4.608;2023-06-26T12:24:07;2.40;;;0.83;;
71296;SDS011;59082;50.658;4.608;2023-06-26T12:26:34;2.60;;;0.88;;
71296;SDS011;59082;50.658;4.608;2023-06-26T12:29:07;3.72;;;0.93;;
71296;SDS011;59082;50.658;4.608;2023-06-26T12:31:39;2.27;;;0.70;;
71296;SDS011;59082;50.658;4.608;2023-06-26T12:34:13;3.55;;;0.30;;
71296;SDS011;59082;50.658;4.608;2023-06-26T12:36:42;2.45;;;0.85;;
71296;SDS011;59082;50.658;4.608;2023-06-26T12:39:10;3.30;;;0.70;;
71296;SDS011;59082;50.658;4.608;2023-06-26T12:41:46;2.15;;;0.75;;
71296;SDS011;59082;50.658;4.608;2023-06-26T12:44:25;1.70;;;0.80;;
71296;SDS011;59082;50.658;4.608;2023-06-26T12:46:58;3.85;;;0.70;;
71296;SDS011;59082;50.658;4.608;2023-06-26T12:49:31;2.65;;;0.60;;
71296;SDS011;59082;50.658;4.608;2023-06-26T12:51:59;3.17;;;0.45;;
71296;SDS011;59082;50.658;4.608;2023-06-26T12:54:25;5.50;;;0.82;;
71296;SDS011;59082;50.658;4.608;2023-06-26T12:56:51;3.67;;;0.90;;
71296;SDS011;59082;50.658;4.608;2023-06-26T12:59:17;2.53;;;0.80;;
71296;SDS011;59082;50.658;4.608;2023-06-26T13:01:43;2.73;;;0.50;;
71296;SDS011;59082;50.658;4.608;2023-06-26T13:04:08;2.15;;;0.50;;
71296;SDS011;59082;50.658;4.608;2023-06-26T13:06:35;2.67;;;0.60;;
71296;SDS011;59082;50.658;4.608;2023-06-26T13:09:01;2.58;;;0.90;;
71296;SDS011;59082;50.658;4.608;2023-06-26T13:11:29;2.85;;;1.13;;
71296;SDS011;59082;50.658;4.608;2023-06-26T13:13:55;3.77;;;0.70;;
71296;SDS011;59082;50.658;4.608;2023-06-26T13:16:21;2.05;;;0.60;;
71296;SDS011;59082;50.658;4.608;2023-06-26T13:18:47;2.72;;;0.40;;
71296;SDS011;59082;50.658;4.608;2023-06-26T13:21:13;7.03;;;0.40;;
71296;SDS011;59082;50.658;4.608;2023-06-26T13:23:39;4.45;;;0.52;;
71296;SDS011;59082;50.658;4.608;2023-06-26T13:26:05;1.98;;;1.20;;
71296;SDS011;59082;50.658;4.608;2023-06-26T13:28:31;3.45;;;0.82;;
71296;SDS011;59082;50.658;4.608;2023-06-26T13:30:57;3.83;;;0.83;;
71296;SDS011;59082;50.658;4.608;2023-06-26T13:33:23;1.70;;;0.80;;
71296;SDS011;59082;50.658;4.608;2023-06-26T13:35:52;3.78;;;0.70;;
71296;SDS011;59082;50.658;4.608;2023-06-26T13:38:20;2.23;;;0.40;;
71296;SDS011;59082;50.658;4.608;2023-06-26T13:40:53;2.38;;;0.43;;
71296;SDS011;59082;50.658;4.608;2023-06-26T13:43:20;2.10;;;0.40;;
71296;SDS011;59082;50.658;4.608;2023-06-26T13:45:47;4.35;;;0.60;;
71296;SDS011;59082;50.658;4.608;2023-06-26T13:48:13;2.22;;;1.23;;
71296;SDS011;59082;50.658;4.608;2023-06-26T13:50:39;3.63;;;0.90;;
71296;SDS011;59082;50.658;4.608;2023-06-26T13:53:05;3.10;;;1.33;;
71296;SDS011;59082;50.658;4.608;2023-06-26T13:55:31;1.90;;;0.97;;
71296;SDS011;59082;50.658;4.608;2023-06-26T13:57:58;2.45;;;0.47;;
71296;SDS011;59082;50.658;4.608;2023-06-26T14:00:23;2.50;;;0.73;;
71296;SDS011;59082;50.658;4.608;2023-06-26T14:02:49;3.00;;;1.20;;
71296;SDS011;59082;50.658;4.608;2023-06-26T14:05:15;3.83;;;0.93;;
71296;SDS011;59082;50.658;4.608;2023-06-26T14:07:40;2.70;;;0.83;;
71296;SDS011;59082;50.658;4.608;2023-06-26T14:10:08;1.83;;;0.50;;
71296;SDS011;59082;50.658;4.608;2023-06-26T14:12:34;2.65;;;0.70;;
71296;SDS011;59082;50.658;4.608;2023-06-26T14:15:00;2.73;;;0.80;;
71296;SDS011;59082;50.658;4.608;2023-06-26T14:17:26;2.70;;;0.88;;
71296;SDS011;59082;50.658;4.608;2023-06-26T14:19:55;3.77;;;0.80;;
71296;SDS011;59082;50.658;4.608;2023-06-26T14:22:20;3.13;;;1.13;;
71296;SDS011;59082;50.658;4.608;2023-06-26T14:24:46;6.25;;;0.70;;
71296;SDS011;59082;50.658;4.608;2023-06-26T14:27:12;3.33;;;0.20;;
71296;SDS011;59082;50.658;4.608;2023-06-26T14:29:37;2.15;;;0.60;;
71296;SDS011;59082;50.658;4.608;2023-06-26T14:32:03;4.37;;;0.60;;
71296;SDS011;59082;50.658;4.608;2023-06-26T14:34:30;4.00;;;0.98;;
71296;SDS011;59082;50.658;4.608;2023-06-26T14:36:55;2.17;;;1.13;;
71296;SDS011;59082;50.658;4.608;2023-06-26T14:39:21;2.38;;;0.93;;
71296;SDS011;59082;50.658;4.608;2023-06-26T14:41:46;4.27;;;0.93;;
71296;SDS011;59082;50.658;4.608;2023-06-26T14:44:13;2.83;;;0.98;;
71296;SDS011;59082;50.658;4.608;2023-06-26T14:46:39;1.83;;;0.60;;
71296;SDS011;59082;50.658;4.608;2023-06-26T14:49:05;1.90;;;0.63;;
71296;SDS011;59082;50.658;4.608;2023-06-26T14:51:30;2.90;;;0.68;;
71296;SDS011;59082;50.658;4.608;2023-06-26T14:53:56;4.20;;;1.00;;
71296;SDS011;59082;50.658;4.608;2023-06-26T14:56:22;2.83;;;0.60;;
71296;SDS011;59082;50.658;4.608;2023-06-26T14:58:47;6.73;;;1.23;;
71296;SDS011;59082;50.658;4.608;2023-06-26T15:01:13;1.90;;;0.53;;
71296;SDS011;59082;50.658;4.608;2023-06-26T15:03:42;1.98;;;0.85;;
71296;SDS011;59082;50.658;4.608;2023-06-26T15:06:07;3.58;;;0.77;;